Nave Celeste — VRZH4 — position and weather

sailwx.info

Track history (hours):
 
Tides and Currents Weather Stations Pressure Air Temp Water Temp Dewpoint Dewpoint Depression Visibility Wind Speed Wind Dir Waves Ship Positions

Nave Celeste

Last reported at 2017-Jul-03 18:19 UTC. Time now 2017-Jul-21 06:25 UTC.
Position N 06°02' E 001°17'.
Warning: this ship's position is 17 days out of date.

Length 332 m; draft 14.6 m.

Type: Tanker. MMSI: 477974000.

Date/timePositionNaut miles runAvg speedWind from/ knotsBaromVisibWave heightAir tempDewpointWater temp
2017-Jul-03 18:19N 06°02' E 001°17'  
2017-Jul-01 13:44N 05°59' E 001°17'2 0.5
2017-Jul-01 10:33N 05°59' E 001°19'3 0.2
2017-Jun-30 19:12N 06°02' E 001°19'0 0.1
2017-Jun-30 19:00N 06°02' E 001°19'0 0.0
2017-Jun-30 18:30N 06°02' E 001°19'0 0.0
2017-Jun-30 06:54N 06°02' E 001°19'0 0.0
2017-Jun-30 06:18N 06°02' E 001°19'0 0.0
2017-Jun-30 03:42N 06°02' E 001°19'0 0.0
2017-Jun-29 18:50N 06°02' E 001°19'0 0.0
2017-Jun-29 17:44N 06°02' E 001°19'0 0.0
2017-Jun-29 17:11N 06°02' E 001°19'0 0.0
2017-Jun-29 16:36N 06°02' E 001°19'0 0.0
2017-Jun-29 16:06N 06°02' E 001°19'5 0.2
2017-Jun-28 17:38N 05°58' E 001°16'1 0.0
2017-Jun-27 22:37N 05°57' E 001°15'0 0.5
2017-Jun-27 22:30N 05°57' E 001°15'0 0.4
2017-Jun-27 22:00N 05°57' E 001°15'0 0.5
2017-Jun-27 21:30N 05°57' E 001°15'0 0.6
2017-Jun-27 21:00N 05°57' E 001°15'0 0.7
2017-Jun-27 20:30N 05°56' E 001°15'0 0.6
2017-Jun-27 20:00N 05°56' E 001°14'1 1.4
2017-Jun-27 19:30N 05°56' E 001°14'0 0.6
2017-Jun-27 19:00N 05°56' E 001°14'0 0.2
2017-Jun-27 18:27N 05°56' E 001°14'0 0.4
2017-Jun-27 18:00N 05°56' E 001°14'1 2.0
2017-Jun-27 17:30N 05°57' E 001°15'1 1.8
2017-Jun-27 17:00N 05°57' E 001°15'2 2.2
2017-Jun-27 16:16N 05°59' E 001°15'1 2.2
2017-Jun-27 15:38N 05°60' E 001°14'1 3.9
2017-Jun-27 15:30N 05°60' E 001°14'1 0.1
2017-Jun-27 09:38N 05°60' E 001°13'0 0.1
2017-Jun-27 09:20N 05°60' E 001°13'0 0.0
2017-Jun-27 08:47N 05°60' E 001°13'0 0.1
2017-Jun-27 07:47N 05°60' E 001°13'0 0.0
2017-Jun-27 06:26N 05°60' E 001°13'0 0.0
2017-Jun-27 05:53N 05°60' E 001°13'0 0.0
2017-Jun-27 05:29N 05°60' E 001°13'0 0.0
2017-Jun-27 04:17N 05°60' E 001°13'0 0.0
2017-Jun-26 22:32N 05°60' E 001°13'0 0.1
2017-Jun-26 22:29N 05°60' E 001°13'0 0.1
2017-Jun-26 21:11N 05°60' E 001°13'0 0.1
2017-Jun-26 20:59N 05°60' E 001°13'0 0.1
2017-Jun-26 20:26N 05°60' E 001°13'0 0.0
2017-Jun-26 19:56N 05°60' E 001°13'0 0.0
2017-Jun-26 19:29N 05°60' E 001°13'0 0.1
2017-Jun-26 18:50N 05°60' E 001°13'0 0.0
2017-Jun-26 06:38N 05°60' E 001°13'0 0.1
2017-Jun-26 06:27N 05°60' E 001°13'0 0.0
2017-Jun-25 08:06N 06°00' E 001°13'4 3.4
2017-Jun-25 07:01N 05°56' E 001°14'0 0.6
2017-Jun-25 06:41N 05°56' E 001°13'0 0.1
2017-Jun-25 05:02N 05°56' E 001°14'0 0.1
2017-Jun-25 05:00N 05°56' E 001°14'0 0.0
2017-Jun-25 03:03N 05°56' E 001°14'0 0.0
2017-Jun-25 02:31N 05°56' E 001°14'0 0.0
2017-Jun-25 02:30N 05°56' E 001°14'0 0.0
2017-Jun-25 01:57N 05°56' E 001°14'0 0.0
2017-Jun-25 01:30N 05°56' E 001°14'0 0.0
2017-Jun-25 00:54N 05°56' E 001°14'0 0.0
2017-Jun-25 00:30N 05°56' E 001°14'0 0.0
2017-Jun-24 23:56N 05°56' E 001°14'0 0.0
2017-Jun-24 23:28N 05°56' E 001°14'0 0.1
2017-Jun-24 23:00N 05°56' E 001°14'0 0.0
2017-Jun-24 22:30N 05°56' E 001°14'0 0.0
2017-Jun-24 22:00N 05°56' E 001°14'0 0.0
2017-Jun-24 21:30N 05°56' E 001°14'0 0.0
2017-Jun-24 20:55N 05°56' E 001°14'0 0.0
2017-Jun-24 20:16N 05°56' E 001°14'0 0.0
2017-Jun-24 19:57N 05°56' E 001°14'0 0.0
2017-Jun-24 19:29N 05°56' E 001°14'0 0.0
2017-Jun-24 19:00N 05°56' E 001°14'0 0.0
2017-Jun-24 18:30N 05°56' E 001°14'0 0.0
2017-Jun-24 18:00N 05°56' E 001°14'0 0.1
2017-Jun-24 17:29N 05°56' E 001°14'0 0.0
2017-Jun-24 16:58N 05°56' E 001°14'0 0.0
2017-Jun-24 16:20N 05°56' E 001°14'0 0.0
2017-Jun-24 16:00N 05°56' E 001°14'0 0.0
2017-Jun-24 15:28N 05°56' E 001°14'0 0.0
2017-Jun-24 14:32N 05°56' E 001°14'0 0.0
2017-Jun-24 13:55N 05°56' E 001°14'0 0.0
2017-Jun-24 12:20N 05°56' E 001°14'1 0.1
2017-Jun-23 23:25N 05°57' E 001°13'0 0.0
2017-Jun-23 22:58N 05°57' E 001°13'0 0.0
2017-Jun-23 22:28N 05°57' E 001°13'0 0.0
2017-Jun-23 21:52N 05°57' E 001°13'  
Track history (hours):
 
Tides and Currents Weather Stations Pressure Air Temp Water Temp Dewpoint Dewpoint Depression Visibility Wind Speed Wind Dir Waves Ship Positions

Nave Celeste

Last reported at 2017-Jul-03 18:19 UTC. Time now 2017-Jul-21 06:25 UTC.
Position N 06°02' E 001°17'.
Warning: this ship's position is 17 days out of date.

Length 332 m; draft 14.6 m.

Type: Tanker. MMSI: 477974000.

Date/timePositionNaut miles runAvg speedWind from/ knotsBaromVisibWave heightAir tempDewpointWater temp
2017-Jul-03 18:19N 06°02' E 001°17'  
2017-Jul-01 13:44N 05°59' E 001°17'2 0.5
2017-Jul-01 10:33N 05°59' E 001°19'3 0.2
2017-Jun-30 19:12N 06°02' E 001°19'0 0.1
2017-Jun-30 19:00N 06°02' E 001°19'0 0.0
2017-Jun-30 18:30N 06°02' E 001°19'0 0.0
2017-Jun-30 06:54N 06°02' E 001°19'0 0.0
2017-Jun-30 06:18N 06°02' E 001°19'0 0.0
2017-Jun-30 03:42N 06°02' E 001°19'0 0.0
2017-Jun-29 18:50N 06°02' E 001°19'0 0.0
2017-Jun-29 17:44N 06°02' E 001°19'0 0.0
2017-Jun-29 17:11N 06°02' E 001°19'0 0.0
2017-Jun-29 16:36N 06°02' E 001°19'0 0.0
2017-Jun-29 16:06N 06°02' E 001°19'5 0.2
2017-Jun-28 17:38N 05°58' E 001°16'1 0.0
2017-Jun-27 22:37N 05°57' E 001°15'0 0.5
2017-Jun-27 22:30N 05°57' E 001°15'0 0.4
2017-Jun-27 22:00N 05°57' E 001°15'0 0.5
2017-Jun-27 21:30N 05°57' E 001°15'0 0.6
2017-Jun-27 21:00N 05°57' E 001°15'0 0.7
2017-Jun-27 20:30N 05°56' E 001°15'0 0.6
2017-Jun-27 20:00N 05°56' E 001°14'1 1.4
2017-Jun-27 19:30N 05°56' E 001°14'0 0.6
2017-Jun-27 19:00N 05°56' E 001°14'0 0.2
2017-Jun-27 18:27N 05°56' E 001°14'0 0.4
2017-Jun-27 18:00N 05°56' E 001°14'1 2.0
2017-Jun-27 17:30N 05°57' E 001°15'1 1.8
2017-Jun-27 17:00N 05°57' E 001°15'2 2.2
2017-Jun-27 16:16N 05°59' E 001°15'1 2.2
2017-Jun-27 15:38N 05°60' E 001°14'1 3.9
2017-Jun-27 15:30N 05°60' E 001°14'1 0.1
2017-Jun-27 09:38N 05°60' E 001°13'0 0.1
2017-Jun-27 09:20N 05°60' E 001°13'0 0.0
2017-Jun-27 08:47N 05°60' E 001°13'0 0.1
2017-Jun-27 07:47N 05°60' E 001°13'0 0.0
2017-Jun-27 06:26N 05°60' E 001°13'0 0.0
2017-Jun-27 05:53N 05°60' E 001°13'0 0.0
2017-Jun-27 05:29N 05°60' E 001°13'0 0.0
2017-Jun-27 04:17N 05°60' E 001°13'0 0.0
2017-Jun-26 22:32N 05°60' E 001°13'0 0.1
2017-Jun-26 22:29N 05°60' E 001°13'0 0.1
2017-Jun-26 21:11N 05°60' E 001°13'0 0.1
2017-Jun-26 20:59N 05°60' E 001°13'0 0.1
2017-Jun-26 20:26N 05°60' E 001°13'0 0.0
2017-Jun-26 19:56N 05°60' E 001°13'0 0.0
2017-Jun-26 19:29N 05°60' E 001°13'0 0.1
2017-Jun-26 18:50N 05°60' E 001°13'0 0.0
2017-Jun-26 06:38N 05°60' E 001°13'0 0.1
2017-Jun-26 06:27N 05°60' E 001°13'0 0.0
2017-Jun-25 08:06N 06°00' E 001°13'4 3.4
2017-Jun-25 07:01N 05°56' E 001°14'0 0.6
2017-Jun-25 06:41N 05°56' E 001°13'0 0.1
2017-Jun-25 05:02N 05°56' E 001°14'0 0.1
2017-Jun-25 05:00N 05°56' E 001°14'0 0.0
2017-Jun-25 03:03N 05°56' E 001°14'0 0.0
2017-Jun-25 02:31N 05°56' E 001°14'0 0.0
2017-Jun-25 02:30N 05°56' E 001°14'0 0.0
2017-Jun-25 01:57N 05°56' E 001°14'0 0.0
2017-Jun-25 01:30N 05°56' E 001°14'0 0.0
2017-Jun-25 00:54N 05°56' E 001°14'0 0.0
2017-Jun-25 00:30N 05°56' E 001°14'0 0.0
2017-Jun-24 23:56N 05°56' E 001°14'0 0.0
2017-Jun-24 23:28N 05°56' E 001°14'0 0.1
2017-Jun-24 23:00N 05°56' E 001°14'0 0.0
2017-Jun-24 22:30N 05°56' E 001°14'0 0.0
2017-Jun-24 22:00N 05°56' E 001°14'0 0.0
2017-Jun-24 21:30N 05°56' E 001°14'0 0.0
2017-Jun-24 20:55N 05°56' E 001°14'0 0.0
2017-Jun-24 20:16N 05°56' E 001°14'0 0.0
2017-Jun-24 19:57N 05°56' E 001°14'0 0.0
2017-Jun-24 19:29N 05°56' E 001°14'0 0.0
2017-Jun-24 19:00N 05°56' E 001°14'0 0.0
2017-Jun-24 18:30N 05°56' E 001°14'0 0.0
2017-Jun-24 18:00N 05°56' E 001°14'0 0.1
2017-Jun-24 17:29N 05°56' E 001°14'0 0.0
2017-Jun-24 16:58N 05°56' E 001°14'0 0.0
2017-Jun-24 16:20N 05°56' E 001°14'0 0.0
2017-Jun-24 16:00N 05°56' E 001°14'0 0.0
2017-Jun-24 15:28N 05°56' E 001°14'0 0.0
2017-Jun-24 14:32N 05°56' E 001°14'0 0.0
2017-Jun-24 13:55N 05°56' E 001°14'0 0.0
2017-Jun-24 12:20N 05°56' E 001°14'1 0.1
2017-Jun-23 23:25N 05°57' E 001°13'0 0.0
2017-Jun-23 22:58N 05°57' E 001°13'0 0.0
2017-Jun-23 22:28N 05°57' E 001°13'0 0.0
2017-Jun-23 21:52N 05°57' E 001°13'  

Dump ship's entire track history